createdAt,value
2023-03-31T00:01:54.370Z,0.69
2023-03-31T00:04:24.365Z,0.71
2023-03-31T00:06:54.637Z,0.72
2023-03-31T00:09:24.248Z,0.72
2023-03-31T00:11:53.131Z,0.74
2023-03-31T00:14:21.997Z,0.74
2023-03-31T00:16:50.088Z,0.76
2023-03-31T00:19:21.299Z,0.75
2023-03-31T00:21:51.666Z,0.75
2023-03-31T00:24:19.858Z,0.78
2023-03-31T00:26:49.441Z,0.79
2023-03-31T00:29:17.630Z,0.81
2023-03-31T00:31:45.833Z,0.83
2023-03-31T00:34:14.042Z,0.87
2023-03-31T00:36:45.952Z,0.89
2023-03-31T00:39:15.915Z,0.92
2023-03-31T00:41:44.048Z,0.95
2023-03-31T00:44:19.061Z,0.94
2023-03-31T00:46:53.819Z,0.93
2023-03-31T00:49:28.281Z,0.95
2023-03-31T00:52:00.501Z,0.95
2023-03-31T00:54:29.985Z,0.95
2023-03-31T00:57:03.604Z,0.95
2023-03-31T00:59:38.376Z,0.97
2023-03-31T01:02:07.475Z,1.01
2023-03-31T01:04:40.389Z,1.00
2023-03-31T01:07:16.945Z,0.98
2023-03-31T01:09:47.398Z,0.99
2023-03-31T01:12:18.977Z,1.01
2023-03-31T01:14:51.443Z,1.04
2023-03-31T01:17:22.375Z,1.10
2023-03-31T01:20:11.765Z,1.12
2023-03-31T01:23:16.662Z,1.07
2023-03-31T01:26:01.427Z,1.06
2023-03-31T01:28:39.994Z,1.07
2023-03-31T01:31:40.067Z,1.06
2023-03-31T01:34:58.930Z,1.05
2023-03-31T01:38:08.100Z,1.02
2023-03-31T01:40:59.967Z,1.01
2023-03-31T01:43:34.778Z,0.92
2023-03-31T01:46:09.828Z,0.93
2023-03-31T01:48:48.884Z,0.94
2023-03-31T01:51:23.340Z,0.96
2023-03-31T01:53:56.913Z,0.99
2023-03-31T01:56:32.533Z,1.00
2023-03-31T01:59:04.638Z,0.95
2023-03-31T02:01:39.250Z,0.95
2023-03-31T02:04:14.722Z,0.97
2023-03-31T02:06:49.965Z,0.95
2023-03-31T02:09:22.841Z,0.91
2023-03-31T02:11:56.305Z,0.94
2023-03-31T02:14:29.998Z,0.97
2023-03-31T02:17:20.784Z,0.96
2023-03-31T02:19:52.897Z,0.97
2023-03-31T02:22:24.835Z,1.00
2023-03-31T02:24:54.822Z,0.96
2023-03-31T02:27:27.909Z,0.98
2023-03-31T02:29:57.154Z,0.96
2023-03-31T02:32:30.211Z,0.94
2023-03-31T02:35:01.042Z,0.91
2023-03-31T02:37:31.196Z,0.87
2023-03-31T02:40:02.554Z,0.87
2023-03-31T02:42:32.319Z,0.89
2023-03-31T02:45:03.612Z,0.89
2023-03-31T02:47:32.028Z,0.82
2023-03-31T02:50:02.934Z,0.84
2023-03-31T02:52:47.339Z,0.77
2023-03-31T02:55:30.765Z,0.81
2023-03-31T02:58:43.420Z,0.80
2023-03-31T03:01:27.191Z,0.80
2023-03-31T03:04:04.814Z,0.83
2023-03-31T03:06:43.801Z,0.89
2023-03-31T03:09:31.961Z,0.91
2023-03-31T03:12:10.173Z,0.92
2023-03-31T03:14:44.000Z,0.89
2023-03-31T03:17:18.074Z,0.89
2023-03-31T03:19:53.824Z,0.94
2023-03-31T03:22:22.507Z,0.97
2023-03-31T03:24:50.819Z,0.98
2023-03-31T03:27:19.065Z,0.97
2023-03-31T03:29:47.651Z,0.98
2023-03-31T03:32:17.260Z,1.00
2023-03-31T03:34:45.357Z,1.03
2023-03-31T03:37:13.367Z,0.99
2023-03-31T03:39:41.410Z,1.03
2023-03-31T03:42:09.619Z,1.05
2023-03-31T03:44:37.619Z,1.06
2023-03-31T03:47:06.023Z,1.05
2023-03-31T03:49:35.504Z,1.08
2023-03-31T03:52:03.893Z,1.06
2023-03-31T03:54:32.123Z,1.08
2023-03-31T03:57:00.504Z,1.10
2023-03-31T03:59:28.566Z,1.09
2023-03-31T04:01:56.695Z,1.13
2023-03-31T04:04:25.100Z,1.13
2023-03-31T04:06:54.418Z,1.10
2023-03-31T04:09:22.875Z,1.10
2023-03-31T04:11:50.984Z,1.13
2023-03-31T04:14:19.084Z,1.17
2023-03-31T04:16:48.523Z,1.17
2023-03-31T04:19:17.748Z,1.18
2023-03-31T04:21:46.207Z,1.20
2023-03-31T04:24:21.700Z,1.22
2023-03-31T04:26:50.911Z,1.26
2023-03-31T04:29:20.704Z,1.28
2023-03-31T04:31:50.840Z,1.31
2023-03-31T04:34:18.964Z,1.34
2023-03-31T04:36:48.299Z,1.35
2023-03-31T04:39:24.483Z,1.40
2023-03-31T04:41:52.691Z,1.43
2023-03-31T04:44:20.808Z,1.44
2023-03-31T04:46:48.922Z,1.45
2023-03-31T04:49:17.146Z,1.47
2023-03-31T04:51:45.340Z,1.54
2023-03-31T04:54:13.785Z,1.53
2023-03-31T04:56:43.444Z,1.52
2023-03-31T04:59:11.610Z,1.56
2023-03-31T05:01:39.639Z,1.59
2023-03-31T05:04:07.752Z,1.60
2023-03-31T05:06:35.863Z,1.63
2023-03-31T05:09:04.241Z,1.68
2023-03-31T05:11:32.368Z,1.72
2023-03-31T05:14:01.843Z,1.77
2023-03-31T05:16:29.920Z,1.77
2023-03-31T05:18:58.013Z,1.80
2023-03-31T05:21:26.905Z,1.87
2023-03-31T05:23:54.925Z,1.92
2023-03-31T05:26:25.118Z,1.98
2023-03-31T05:28:53.589Z,2.08
2023-03-31T05:31:23.468Z,2.14
2023-03-31T05:33:51.946Z,2.16
2023-03-31T05:36:20.055Z,2.14
2023-03-31T05:38:48.351Z,2.08
2023-03-31T05:41:17.076Z,2.14
2023-03-31T05:43:45.352Z,2.20
2023-03-31T05:46:14.044Z,2.26
2023-03-31T05:48:44.896Z,2.24
2023-03-31T05:51:12.992Z,2.29
2023-03-31T05:53:42.057Z,2.26
2023-03-31T05:56:10.855Z,2.30
2023-03-31T05:58:39.053Z,2.39
2023-03-31T06:01:10.084Z,2.45
2023-03-31T06:03:41.336Z,2.53
2023-03-31T06:06:13.176Z,2.58
2023-03-31T06:08:41.790Z,2.58
2023-03-31T06:11:12.208Z,2.61
2023-03-31T06:13:41.137Z,2.68
2023-03-31T06:16:11.148Z,2.78
2023-03-31T06:18:39.695Z,2.87
2023-03-31T06:21:08.783Z,2.91
2023-03-31T06:23:38.457Z,2.98
2023-03-31T06:26:08.618Z,3.01
2023-03-31T06:28:37.607Z,3.07
2023-03-31T06:31:08.384Z,3.13
2023-03-31T06:33:37.129Z,3.24
2023-03-31T06:36:06.902Z,3.27
2023-03-31T06:38:36.241Z,3.32
2023-03-31T06:41:06.460Z,3.32
2023-03-31T06:43:36.002Z,3.35
2023-03-31T06:46:04.844Z,3.44
2023-03-31T06:48:34.950Z,3.49
2023-03-31T06:51:08.330Z,3.73
2023-03-31T06:53:42.788Z,3.92
2023-03-31T06:56:18.231Z,4.31
2023-03-31T06:58:46.524Z,4.46
2023-03-31T07:01:24.989Z,4.45
2023-03-31T07:03:53.395Z,4.73
2023-03-31T07:06:35.285Z,4.70
2023-03-31T07:09:13.316Z,4.65
2023-03-31T07:11:46.119Z,4.68
2023-03-31T07:14:32.378Z,4.68
2023-03-31T07:17:04.344Z,4.71
2023-03-31T07:19:39.555Z,4.62
2023-03-31T07:22:20.534Z,4.62
2023-03-31T07:24:48.766Z,4.69
2023-03-31T07:27:19.253Z,4.75
2023-03-31T07:29:47.625Z,5.31
2023-03-31T07:32:16.145Z,5.21
2023-03-31T07:34:44.611Z,5.03
2023-03-31T07:37:12.736Z,4.90
2023-03-31T07:39:41.587Z,4.68
2023-03-31T07:42:10.112Z,4.68
2023-03-31T07:44:40.492Z,4.63
2023-03-31T07:47:08.813Z,4.88
2023-03-31T07:49:37.016Z,5.00
2023-03-31T07:52:05.920Z,5.19
2023-03-31T07:54:34.221Z,5.35
2023-03-31T07:57:03.393Z,5.64
2023-03-31T07:59:32.641Z,6.00
2023-03-31T08:02:02.311Z,6.30
2023-03-31T08:04:30.860Z,6.86
2023-03-31T08:06:59.195Z,7.10
2023-03-31T08:09:27.507Z,7.25
2023-03-31T08:11:55.648Z,7.58
2023-03-31T08:14:34.220Z,7.79
2023-03-31T08:17:10.619Z,7.85
2023-03-31T08:19:39.057Z,7.95
2023-03-31T08:22:07.189Z,7.88
2023-03-31T08:24:35.427Z,8.36
2023-03-31T08:27:03.488Z,8.62
2023-03-31T08:29:31.584Z,8.63
2023-03-31T08:31:59.674Z,8.53
2023-03-31T08:34:29.106Z,8.41
2023-03-31T08:36:57.224Z,8.27
2023-03-31T08:39:25.670Z,8.08
2023-03-31T08:41:59.296Z,8.00
2023-03-31T08:44:33.745Z,7.71
2023-03-31T08:47:04.137Z,7.62
2023-03-31T08:49:40.681Z,7.43
2023-03-31T08:52:13.820Z,7.17
2023-03-31T08:54:42.706Z,7.04
2023-03-31T08:57:17.080Z,6.93
2023-03-31T08:59:46.223Z,6.61
2023-03-31T09:02:22.539Z,6.50
2023-03-31T09:05:18.469Z,6.39
2023-03-31T09:07:55.627Z,6.45
2023-03-31T09:10:36.851Z,6.33
2023-03-31T09:13:18.610Z,6.32
2023-03-31T09:15:51.751Z,6.32
2023-03-31T09:18:27.635Z,6.28
2023-03-31T09:21:03.845Z,6.18
2023-03-31T09:23:36.510Z,6.05
2023-03-31T09:26:07.247Z,6.16
2023-03-31T09:28:39.611Z,6.30
2023-03-31T09:31:16.148Z,6.39
2023-03-31T09:33:47.166Z,6.37
2023-03-31T09:36:19.258Z,6.30
2023-03-31T09:38:48.346Z,6.37
2023-03-31T09:41:17.328Z,6.52
2023-03-31T09:43:46.701Z,6.64
2023-03-31T09:46:21.503Z,6.74
2023-03-31T09:48:56.833Z,6.87
2023-03-31T09:51:30.638Z,6.85
2023-03-31T09:54:03.896Z,6.86
2023-03-31T09:56:46.385Z,6.85
2023-03-31T09:59:18.402Z,6.71
2023-03-31T10:01:48.271Z,6.75
2023-03-31T10:04:22.854Z,6.87
2023-03-31T10:06:53.968Z,7.02
2023-03-31T10:09:25.581Z,6.92
2023-03-31T10:11:58.959Z,6.84
2023-03-31T10:14:33.937Z,6.84
2023-03-31T10:17:07.407Z,6.71
2023-03-31T10:19:37.999Z,6.92
2023-03-31T10:22:16.161Z,7.17
2023-03-31T10:24:45.678Z,7.32
2023-03-31T10:27:23.902Z,7.30
2023-03-31T10:29:54.733Z,7.14
2023-03-31T10:32:28.768Z,7.08
2023-03-31T10:34:58.108Z,6.98
2023-03-31T10:37:29.700Z,6.92
2023-03-31T10:39:59.927Z,6.88
2023-03-31T10:42:29.336Z,6.94
2023-03-31T10:45:36.524Z,7.08
2023-03-31T10:48:06.345Z,7.17
2023-03-31T10:50:37.199Z,7.19
2023-03-31T10:53:08.437Z,7.21
2023-03-31T10:55:43.130Z,7.35
2023-03-31T10:58:23.786Z,7.45
2023-03-31T11:01:04.692Z,7.49
2023-03-31T11:03:51.404Z,7.55
2023-03-31T11:06:28.282Z,7.64
2023-03-31T11:09:10.870Z,7.61
2023-03-31T11:11:55.905Z,7.51
2023-03-31T11:14:36.416Z,7.37
2023-03-31T11:17:20.011Z,7.23
2023-03-31T11:19:59.471Z,7.18
2023-03-31T11:22:36.714Z,7.07
2023-03-31T11:25:24.912Z,7.09
2023-03-31T11:28:18.613Z,7.03
2023-03-31T11:30:51.949Z,6.94
2023-03-31T11:33:40.808Z,6.99
2023-03-31T11:36:22.337Z,7.02
2023-03-31T11:39:04.861Z,7.03
2023-03-31T11:41:38.090Z,7.06
2023-03-31T11:44:11.961Z,7.09
2023-03-31T11:46:50.590Z,7.18
2023-03-31T11:49:21.802Z,7.23
2023-03-31T11:51:56.904Z,7.23
2023-03-31T11:54:30.500Z,7.31
2023-03-31T11:57:04.977Z,7.30
2023-03-31T11:59:34.026Z,7.20
2023-03-31T12:02:11.120Z,7.22
2023-03-31T12:04:44.335Z,7.20
2023-03-31T12:07:25.007Z,7.14
2023-03-31T12:10:03.309Z,7.13
2023-03-31T12:12:36.612Z,7.09
2023-03-31T12:15:14.017Z,7.06
2023-03-31T12:17:46.841Z,6.98
2023-03-31T12:20:22.350Z,7.01
2023-03-31T12:22:51.085Z,6.96
2023-03-31T12:25:26.292Z,6.77
2023-03-31T12:27:56.678Z,6.70
2023-03-31T12:30:31.785Z,6.43
2023-03-31T12:33:05.639Z,6.42
2023-03-31T12:35:44.361Z,6.46
2023-03-31T12:38:23.354Z,6.44
2023-03-31T12:41:00.260Z,6.24
2023-03-31T12:43:58.032Z,6.21
2023-03-31T12:46:42.958Z,6.11
2023-03-31T12:49:24.645Z,6.03
2023-03-31T12:52:02.368Z,5.93
2023-03-31T12:54:55.848Z,5.84
2023-03-31T12:57:25.527Z,5.68
2023-03-31T13:00:21.116Z,5.62
2023-03-31T13:02:50.668Z,5.55
2023-03-31T13:05:50.477Z,5.40
2023-03-31T13:08:52.235Z,5.30
2023-03-31T13:11:21.342Z,5.33
2023-03-31T13:14:01.096Z,5.32
2023-03-31T13:16:33.693Z,5.31
2023-03-31T13:19:02.838Z,5.27
2023-03-31T13:21:31.296Z,5.21
2023-03-31T13:24:01.904Z,5.17
2023-03-31T13:26:48.069Z,5.08
2023-03-31T13:29:25.456Z,5.09
2023-03-31T13:32:21.320Z,5.05
2023-03-31T13:35:00.780Z,5.01
2023-03-31T13:37:58.143Z,5.00
2023-03-31T13:40:57.588Z,4.97
2023-03-31T13:44:00.047Z,5.02
2023-03-31T13:46:47.151Z,4.96
2023-03-31T13:49:39.082Z,4.90
2023-03-31T13:52:12.577Z,4.93
2023-03-31T13:55:06.176Z,5.00
2023-03-31T13:58:29.427Z,4.95
2023-03-31T14:01:17.843Z,4.79
2023-03-31T14:04:00.515Z,4.68
2023-03-31T14:06:37.228Z,4.65
2023-03-31T14:09:09.110Z,4.52
2023-03-31T14:11:37.528Z,4.39
2023-03-31T14:14:14.655Z,4.25
2023-03-31T14:16:46.926Z,4.16
2023-03-31T14:19:40.995Z,4.09
2023-03-31T14:22:20.727Z,4.05
2023-03-31T14:24:56.441Z,4.02
2023-03-31T14:27:39.753Z,4.00
2023-03-31T14:30:20.163Z,3.97
2023-03-31T14:33:04.086Z,3.86
2023-03-31T14:35:38.880Z,3.79
2023-03-31T14:38:14.426Z,3.80
2023-03-31T14:40:48.095Z,3.76
2023-03-31T14:43:21.459Z,3.77
2023-03-31T14:45:58.795Z,3.75
2023-03-31T14:48:28.921Z,3.71
2023-03-31T14:50:59.484Z,3.65
2023-03-31T14:53:29.297Z,3.68
2023-03-31T14:56:04.347Z,3.63
2023-03-31T14:58:35.840Z,3.59
2023-03-31T15:01:06.974Z,3.56
2023-03-31T15:03:36.507Z,3.54
2023-03-31T15:06:06.521Z,3.51
2023-03-31T15:08:38.272Z,3.49
2023-03-31T15:11:13.056Z,3.48
2023-03-31T15:13:56.806Z,3.47
2023-03-31T15:16:37.710Z,3.43
2023-03-31T15:19:13.138Z,3.45
2023-03-31T15:21:41.209Z,3.38
2023-03-31T15:24:13.335Z,3.35
2023-03-31T15:26:47.814Z,3.31
2023-03-31T15:29:21.161Z,3.31
2023-03-31T15:31:50.060Z,3.25
2023-03-31T15:34:27.928Z,3.10
2023-03-31T15:36:57.890Z,2.97
2023-03-31T15:39:31.522Z,2.86
2023-03-31T15:42:02.102Z,2.81
2023-03-31T15:44:44.820Z,2.73
2023-03-31T15:47:18.990Z,2.67
2023-03-31T15:49:53.208Z,2.59
2023-03-31T15:52:36.130Z,2.53
2023-03-31T15:55:27.309Z,2.47
2023-03-31T15:57:57.413Z,2.42
2023-03-31T16:00:45.672Z,2.34
2023-03-31T16:03:18.180Z,2.33
2023-03-31T16:05:54.956Z,2.34
2023-03-31T16:08:27.389Z,2.29
2023-03-31T16:11:03.295Z,2.25
2023-03-31T16:13:33.678Z,2.19
2023-03-31T16:16:02.246Z,2.15
2023-03-31T16:18:34.708Z,2.12
2023-03-31T16:21:06.299Z,2.03
2023-03-31T16:23:38.743Z,1.96
2023-03-31T16:26:09.000Z,1.89
2023-03-31T16:28:39.284Z,1.84
2023-03-31T16:31:31.259Z,1.80
2023-03-31T16:33:59.558Z,1.76
2023-03-31T16:36:28.354Z,1.75
2023-03-31T16:38:58.160Z,1.78
2023-03-31T16:41:29.660Z,1.79
2023-03-31T16:43:57.711Z,1.80
2023-03-31T16:46:26.267Z,1.80
2023-03-31T16:48:54.755Z,1.85
2023-03-31T16:51:23.449Z,1.92
2023-03-31T16:53:51.787Z,1.95
2023-03-31T16:56:21.095Z,1.96
2023-03-31T16:58:50.764Z,1.93
2023-03-31T17:01:18.796Z,1.88
2023-03-31T17:03:48.803Z,1.89
2023-03-31T17:06:16.984Z,1.86
2023-03-31T17:08:45.810Z,1.86
2023-03-31T17:11:15.083Z,1.82
2023-03-31T17:13:44.637Z,1.76
2023-03-31T17:19:02.625Z,1.53
2023-03-31T17:21:30.964Z,1.45
2023-03-31T17:24:01.561Z,1.33
2023-03-31T17:26:30.814Z,1.28
2023-03-31T17:29:00.664Z,1.26
2023-03-31T17:31:30.714Z,1.19
2023-03-31T17:33:59.645Z,1.17
2023-03-31T17:36:27.863Z,1.12
2023-03-31T17:38:56.249Z,1.10
2023-03-31T17:41:24.524Z,1.09
2023-03-31T17:43:52.777Z,1.10
2023-03-31T17:46:20.890Z,1.08
2023-03-31T17:48:50.843Z,1.07
2023-03-31T17:51:20.121Z,1.06
2023-03-31T17:53:49.050Z,1.07
2023-03-31T17:56:18.378Z,1.07
2023-03-31T17:58:46.928Z,1.06
2023-03-31T18:01:15.562Z,1.14
2023-03-31T18:03:47.118Z,1.16
2023-03-31T18:06:19.926Z,1.17
2023-03-31T18:08:51.302Z,1.16
2023-03-31T18:11:22.689Z,1.19
2023-03-31T18:13:53.936Z,1.22
2023-03-31T18:16:25.331Z,1.23
2023-03-31T18:18:56.542Z,1.23
2023-03-31T18:21:30.041Z,1.23
2023-03-31T18:24:01.140Z,1.24
2023-03-31T18:26:32.470Z,1.27
2023-03-31T18:29:06.685Z,1.22
2023-03-31T18:31:37.627Z,1.22
2023-03-31T18:34:09.088Z,1.21
2023-03-31T18:36:41.568Z,1.18
2023-03-31T18:39:12.629Z,1.14
2023-03-31T18:41:48.096Z,1.11
2023-03-31T18:44:19.311Z,1.10
2023-03-31T18:46:50.321Z,1.07
2023-03-31T18:49:22.016Z,0.97
2023-03-31T18:51:54.891Z,0.92
2023-03-31T18:54:26.278Z,0.95
2023-03-31T18:56:57.589Z,0.90
2023-03-31T18:59:29.069Z,0.93
2023-03-31T19:02:00.418Z,0.89
2023-03-31T19:04:32.223Z,0.89
2023-03-31T19:07:04.682Z,0.93
2023-03-31T19:09:35.248Z,0.96
2023-03-31T19:12:06.715Z,0.96
2023-03-31T19:14:37.960Z,0.89
2023-03-31T19:17:09.347Z,0.80
2023-03-31T19:19:40.152Z,0.81
2023-03-31T19:22:12.713Z,0.76
2023-03-31T19:24:43.181Z,0.75
2023-03-31T19:27:14.693Z,0.70
2023-03-31T19:29:45.553Z,0.68
2023-03-31T19:32:16.596Z,0.64
2023-03-31T19:34:50.717Z,0.64
2023-03-31T19:37:23.898Z,0.64
2023-03-31T19:39:54.914Z,0.68
2023-03-31T19:42:25.860Z,0.67
2023-03-31T19:44:56.875Z,0.67
2023-03-31T19:47:27.945Z,0.62
2023-03-31T19:49:58.299Z,0.63
2023-03-31T19:52:31.400Z,0.62
2023-03-31T19:55:00.249Z,0.65
2023-03-31T19:57:29.006Z,0.61
2023-03-31T19:59:57.198Z,0.60
2023-03-31T20:02:25.502Z,0.57
2023-03-31T20:04:54.431Z,0.52
2023-03-31T20:07:23.213Z,0.40
2023-03-31T20:09:52.942Z,0.42
2023-03-31T20:12:21.148Z,0.40
2023-03-31T20:14:49.242Z,0.35
2023-03-31T20:17:17.672Z,0.37
2023-03-31T20:19:46.285Z,0.36
2023-03-31T20:22:14.398Z,0.35
2023-03-31T20:24:42.392Z,0.31
2023-03-31T20:27:14.185Z,0.32
2023-03-31T20:29:45.316Z,0.27
2023-03-31T20:32:18.812Z,0.25
2023-03-31T20:34:49.541Z,0.22
2023-03-31T20:37:20.680Z,0.20
2023-03-31T20:39:51.791Z,0.22
2023-03-31T20:42:24.392Z,0.32
2023-03-31T20:44:56.209Z,0.34
2023-03-31T20:47:28.977Z,0.32
2023-03-31T20:50:03.324Z,0.34
2023-03-31T20:52:34.815Z,0.32
2023-03-31T20:55:08.253Z,0.36
2023-03-31T20:57:40.857Z,0.37
2023-03-31T21:00:13.040Z,0.34
2023-03-31T21:02:44.224Z,0.34
2023-03-31T21:05:18.545Z,0.29
2023-03-31T21:07:50.872Z,0.30
2023-03-31T21:10:22.572Z,0.28
2023-03-31T21:12:55.724Z,0.22
2023-03-31T21:15:26.627Z,0.20
2023-03-31T21:17:58.104Z,0.15
2023-03-31T21:20:32.585Z,0.08
2023-03-31T21:23:04.210Z,0.07
2023-03-31T21:25:37.249Z,0.04
2023-03-31T21:28:10.135Z,0.02
2023-03-31T21:30:41.000Z,0.02
2023-03-31T21:33:12.216Z,-0.02
2023-03-31T21:35:43.513Z,-0.03
2023-03-31T21:38:15.032Z,-0.07
2023-03-31T21:40:46.212Z,-0.07
2023-03-31T21:43:18.842Z,-0.07
2023-03-31T21:45:50.875Z,-0.06
2023-03-31T21:48:28.146Z,-0.08
2023-03-31T21:51:01.324Z,-0.05
2023-03-31T21:53:33.475Z,-0.01
2023-03-31T21:56:05.195Z,0.04
2023-03-31T21:58:38.460Z,0.07
2023-03-31T22:01:09.272Z,0.06
2023-03-31T22:03:43.019Z,0.09
2023-03-31T22:06:14.199Z,0.10
2023-03-31T22:08:46.464Z,0.14
2023-03-31T22:11:18.211Z,0.12
2023-03-31T22:13:51.900Z,0.13
2023-03-31T22:16:24.955Z,0.16
2023-03-31T22:18:57.670Z,0.16
2023-03-31T22:21:44.385Z,0.16
2023-03-31T22:24:15.577Z,0.18
2023-03-31T22:26:47.063Z,0.18
2023-03-31T22:29:19.858Z,0.17
2023-03-31T22:31:50.651Z,0.16
2023-03-31T22:34:22.423Z,0.14
2023-03-31T22:36:54.504Z,0.11
2023-03-31T22:39:25.800Z,0.10
2023-03-31T22:41:58.866Z,0.09
2023-03-31T22:44:31.970Z,0.06
2023-03-31T22:47:04.531Z,0.04
2023-03-31T22:49:36.684Z,-0.02
2023-03-31T22:52:08.951Z,0.03
2023-03-31T22:54:41.004Z,0.05
2023-03-31T22:57:12.596Z,0.02
2023-03-31T22:59:46.400Z,0.04
2023-03-31T23:02:17.698Z,0.03
2023-03-31T23:04:48.802Z,0.00
2023-03-31T23:07:22.619Z,0.01
2023-03-31T23:09:53.762Z,0.00
2023-03-31T23:12:27.575Z,-0.02
2023-03-31T23:15:01.915Z,-0.04
2023-03-31T23:17:34.035Z,-0.04
2023-03-31T23:20:07.453Z,-0.02
2023-03-31T23:22:38.246Z,-0.04
2023-03-31T23:25:11.029Z,-0.05
2023-03-31T23:27:42.443Z,-0.04
2023-03-31T23:30:16.997Z,-0.06
2023-03-31T23:32:48.659Z,-0.06
2023-03-31T23:35:21.259Z,-0.10
2023-03-31T23:37:52.966Z,-0.09
2023-03-31T23:40:28.252Z,-0.09
2023-03-31T23:42:59.410Z,-0.13
2023-03-31T23:45:33.004Z,-0.15
2023-03-31T23:48:04.480Z,-0.13
2023-03-31T23:50:35.994Z,-0.15
2023-03-31T23:53:10.062Z,-0.13
2023-03-31T23:55:41.305Z,-0.15
2023-03-31T23:58:12.287Z,-0.14
